createdAt,value
2018-03-04T00:00:24.920Z,113.18
2018-03-04T00:01:14.001Z,131.05
2018-03-04T00:02:03.042Z,122.43
2018-03-04T00:02:52.144Z,119.22
2018-03-04T00:03:41.210Z,123.40
2018-03-04T00:04:30.367Z,108.68
2018-03-04T00:05:19.420Z,104.32
2018-03-04T00:06:08.466Z,104.30
2018-03-04T00:06:57.536Z,92.97
2018-03-04T00:07:46.577Z,103.30
2018-03-04T00:08:35.604Z,95.97
2018-03-04T00:09:25.013Z,88.82
2018-03-04T00:10:14.076Z,96.45
2018-03-04T00:11:03.116Z,94.53
2018-03-04T00:11:52.150Z,108.87
2018-03-04T00:12:41.185Z,116.53
2018-03-04T00:13:30.238Z,110.57
2018-03-04T00:14:19.267Z,99.97
2018-03-04T00:15:08.382Z,103.22
2018-03-04T00:15:57.422Z,87.57
2018-03-04T00:16:46.490Z,99.00
2018-03-04T00:17:35.517Z,97.70
2018-03-04T00:18:24.553Z,150.40
2018-03-04T00:19:13.595Z,164.40
2018-03-04T00:20:02.653Z,162.57
2018-03-04T00:20:51.715Z,139.35
2018-03-04T00:21:40.758Z,139.18
2018-03-04T00:22:41.582Z,140.93
2018-03-04T00:23:30.637Z,127.18
2018-03-04T00:24:19.687Z,136.73
2018-03-04T00:25:08.830Z,123.25
2018-03-04T00:25:57.865Z,143.13
2018-03-04T00:26:46.907Z,128.62
2018-03-04T00:27:35.971Z,142.48
2018-03-04T00:28:25.134Z,152.65
2018-03-04T00:29:14.171Z,138.43
2018-03-04T00:30:03.257Z,115.68
2018-03-04T00:30:52.302Z,144.35
2018-03-04T00:31:41.376Z,150.70
2018-03-04T00:32:30.414Z,158.93
2018-03-04T00:33:19.450Z,147.85
2018-03-04T00:34:08.539Z,140.68
2018-03-04T00:34:57.587Z,137.60
2018-03-04T00:35:46.731Z,130.82
2018-03-04T00:36:35.860Z,122.35
2018-03-04T00:37:25.016Z,176.25
2018-03-04T00:38:14.061Z,141.65
2018-03-04T00:39:03.241Z,140.25
2018-03-04T00:39:52.284Z,133.65
2018-03-04T00:40:41.333Z,151.50
2018-03-04T00:41:30.393Z,147.62
2018-03-04T00:42:19.436Z,152.98
2018-03-04T00:43:08.484Z,135.18
2018-03-04T00:43:57.542Z,131.27
2018-03-04T00:44:46.718Z,140.15
2018-03-04T00:45:35.756Z,133.07
2018-03-04T00:46:24.791Z,147.50
2018-03-04T00:47:13.884Z,151.50
2018-03-04T00:48:02.918Z,147.52
2018-03-04T00:48:51.954Z,140.85
2018-03-04T00:49:40.990Z,125.80
2018-03-04T00:50:30.025Z,129.48
2018-03-04T00:51:19.264Z,133.95
2018-03-04T00:52:08.389Z,126.93
2018-03-04T00:52:57.482Z,129.93
2018-03-04T00:53:46.531Z,121.05
2018-03-04T00:54:35.567Z,109.90
2018-03-04T00:55:24.630Z,104.87
2018-03-04T00:56:13.677Z,96.35
2018-03-04T00:57:02.741Z,109.12
2018-03-04T00:57:51.871Z,96.30
2018-03-04T00:58:40.908Z,109.82
2018-03-04T00:59:29.941Z,103.12
2018-03-04T01:00:18.997Z,104.85
2018-03-04T01:01:08.084Z,101.25
2018-03-04T01:01:57.151Z,91.78
2018-03-04T01:02:46.175Z,89.78
2018-03-04T01:03:35.238Z,79.32
2018-03-04T01:04:24.287Z,72.57
2018-03-04T01:05:13.334Z,79.97
2018-03-04T01:06:02.366Z,76.15
2018-03-04T01:06:51.398Z,73.78
2018-03-04T01:07:40.431Z,69.97
2018-03-04T01:08:29.471Z,66.30
2018-03-04T01:09:18.546Z,68.15
2018-03-04T01:10:07.594Z,71.30
2018-03-04T01:10:56.633Z,68.28
2018-03-04T01:11:45.663Z,57.45
2018-03-04T01:12:34.743Z,57.78
2018-03-04T01:13:23.793Z,54.95
2018-03-04T01:14:12.847Z,59.97
2018-03-04T01:15:01.976Z,57.38
2018-03-04T01:15:51.026Z,52.35
2018-03-04T01:16:40.062Z,61.30
2018-03-04T01:17:29.104Z,72.40
2018-03-04T01:18:18.135Z,82.97
2018-03-04T01:19:07.188Z,69.85
2018-03-04T01:19:56.234Z,73.25
2018-03-04T01:20:45.308Z,71.37
2018-03-04T01:21:34.338Z,79.05
2018-03-04T01:22:23.388Z,66.70
2018-03-04T01:23:12.435Z,69.80
2018-03-04T01:24:01.459Z,68.90
2018-03-04T01:24:50.508Z,65.25
2018-03-04T01:25:39.544Z,56.53
2018-03-04T01:26:31.645Z,65.78
2018-03-04T01:27:20.709Z,71.10
2018-03-04T01:28:09.760Z,65.30
2018-03-04T01:28:58.793Z,66.40
2018-03-04T01:29:47.843Z,70.78
2018-03-04T01:30:36.876Z,79.18
2018-03-04T01:31:25.916Z,126.55
2018-03-04T01:32:15.122Z,118.03
2018-03-04T01:33:04.179Z,87.62
2018-03-04T01:33:53.236Z,103.25
2018-03-04T01:34:42.286Z,88.18
2018-03-04T01:35:31.336Z,87.68
2018-03-04T01:36:20.378Z,89.45
2018-03-04T01:37:09.414Z,88.65
2018-03-04T01:37:58.498Z,86.68
2018-03-04T01:38:47.554Z,92.40
2018-03-04T01:39:36.582Z,86.82
2018-03-04T01:40:25.621Z,102.47
2018-03-04T01:41:14.746Z,112.00
2018-03-04T01:42:03.799Z,96.37
2018-03-04T01:42:52.867Z,100.85
2018-03-04T01:43:41.933Z,78.60
2018-03-04T01:44:30.967Z,71.70
2018-03-04T01:45:19.995Z,70.53
2018-03-04T01:46:09.162Z,86.97
2018-03-04T01:46:58.209Z,76.00
2018-03-04T01:47:47.246Z,80.45
2018-03-04T01:48:36.305Z,71.62
2018-03-04T01:49:25.341Z,81.85
2018-03-04T01:50:14.385Z,76.50
2018-03-04T01:51:03.413Z,72.32
2018-03-04T01:51:52.549Z,77.05
2018-03-04T01:52:41.598Z,80.05
2018-03-04T01:53:30.638Z,88.20
2018-03-04T01:54:19.683Z,89.80
2018-03-04T01:55:08.718Z,91.72
2018-03-04T01:55:57.774Z,100.65
2018-03-04T01:56:46.902Z,89.85
2018-03-04T01:57:35.955Z,101.18
2018-03-04T01:58:24.994Z,98.32
2018-03-04T01:59:14.037Z,112.20
2018-03-04T02:00:03.099Z,109.43
2018-03-04T02:00:52.815Z,115.95
2018-03-04T02:01:42.025Z,216.10
2018-03-04T02:02:31.227Z,134.45
2018-03-04T02:03:20.295Z,118.85
2018-03-04T02:04:09.329Z,108.63
2018-03-04T02:04:58.377Z,105.28
2018-03-04T02:05:47.420Z,104.22
2018-03-04T02:06:36.460Z,117.18
2018-03-04T02:07:25.526Z,117.70
2018-03-04T02:08:14.676Z,123.90
2018-03-04T02:09:03.797Z,106.82
2018-03-04T02:09:52.837Z,112.72
2018-03-04T02:10:41.898Z,107.82
2018-03-04T02:11:30.970Z,116.65
2018-03-04T02:12:20.073Z,110.68
2018-03-04T02:13:09.119Z,94.22
2018-03-04T02:13:58.150Z,106.32
2018-03-04T02:14:47.189Z,111.10
2018-03-04T02:15:36.264Z,100.57
2018-03-04T02:16:25.317Z,103.68
2018-03-04T02:17:14.443Z,106.50
2018-03-04T02:18:03.473Z,83.07
2018-03-04T02:18:52.523Z,116.28
2018-03-04T02:19:41.561Z,99.70
2018-03-04T02:20:30.603Z,108.37
2018-03-04T02:21:19.754Z,105.07
2018-03-04T02:22:08.836Z,110.32
2018-03-04T02:22:57.871Z,116.15
2018-03-04T02:23:46.901Z,106.55
2018-03-04T02:24:35.938Z,96.10
2018-03-04T02:25:25.003Z,91.03
2018-03-04T02:26:14.048Z,91.40
2018-03-04T02:27:03.184Z,98.65
2018-03-04T02:27:52.228Z,112.97
2018-03-04T02:28:41.301Z,124.25
2018-03-04T02:29:30.422Z,121.22
2018-03-04T02:30:19.462Z,114.35
2018-03-04T02:31:08.515Z,101.53
2018-03-04T02:31:57.572Z,110.55
2018-03-04T02:32:46.608Z,110.60
2018-03-04T02:33:35.680Z,104.32
2018-03-04T02:34:24.733Z,98.55
2018-03-04T02:35:13.881Z,102.57
2018-03-04T02:36:02.939Z,102.40
2018-03-04T02:36:51.982Z,105.32
2018-03-04T02:37:41.033Z,105.25
2018-03-04T02:38:30.088Z,131.55
2018-03-04T02:39:19.152Z,124.78
2018-03-04T02:40:08.214Z,113.88
2018-03-04T02:40:57.318Z,117.50
2018-03-04T02:41:46.363Z,123.87
2018-03-04T02:42:35.418Z,122.25
2018-03-04T02:43:24.455Z,124.65
2018-03-04T02:44:13.508Z,132.70
2018-03-04T02:45:02.549Z,125.32
2018-03-04T02:45:51.764Z,122.72
2018-03-04T02:46:40.826Z,117.50
2018-03-04T02:47:29.874Z,115.12
2018-03-04T02:48:19.017Z,117.05
2018-03-04T02:49:08.054Z,108.32
2018-03-04T02:49:57.096Z,112.40
2018-03-04T02:50:46.156Z,115.55
2018-03-04T02:51:35.194Z,115.47
2018-03-04T02:52:25.940Z,112.05
2018-03-04T02:53:15.014Z,121.00
2018-03-04T02:54:04.099Z,115.45
2018-03-04T02:54:53.141Z,120.55
2018-03-04T02:55:42.179Z,110.68
2018-03-04T02:56:31.217Z,99.82
2018-03-04T02:57:20.254Z,120.05
2018-03-04T02:58:09.303Z,129.43
2018-03-04T02:58:58.341Z,123.68
2018-03-04T02:59:47.423Z,123.50
2018-03-04T03:00:36.470Z,120.07
2018-03-04T03:01:25.530Z,120.22
2018-03-04T03:02:14.573Z,111.50
2018-03-04T03:03:03.617Z,115.65
2018-03-04T03:03:52.674Z,118.62
2018-03-04T03:04:41.715Z,109.12
2018-03-04T03:05:30.849Z,117.10
2018-03-04T03:06:19.896Z,116.45
2018-03-04T03:07:08.931Z,111.95
2018-03-04T03:07:57.968Z,107.37
2018-03-04T03:08:47.019Z,110.75
2018-03-04T03:09:36.062Z,103.10
2018-03-04T03:10:25.111Z,103.57
2018-03-04T03:11:14.283Z,98.32
2018-03-04T03:12:03.319Z,102.22
2018-03-04T03:12:52.367Z,102.97
2018-03-04T03:13:41.484Z,101.47
2018-03-04T03:14:30.525Z,100.78
2018-03-04T03:15:19.570Z,124.70
2018-03-04T03:16:08.621Z,120.47
2018-03-04T03:16:57.693Z,129.63
2018-03-04T03:17:46.785Z,147.18
2018-03-04T03:18:35.827Z,147.00
2018-03-04T03:19:24.885Z,142.68
2018-03-04T03:20:13.918Z,142.40
2018-03-04T03:21:02.960Z,106.37
2018-03-04T03:21:52.033Z,97.25
2018-03-04T03:22:41.148Z,108.43
2018-03-04T03:23:30.197Z,111.95
2018-03-04T03:24:19.246Z,94.60
2018-03-04T03:25:08.288Z,95.85
2018-03-04T03:25:57.315Z,88.40
2018-03-04T03:26:46.339Z,83.87
2018-03-04T03:27:35.384Z,75.22
2018-03-04T03:28:24.577Z,83.37
2018-03-04T03:29:13.616Z,72.65
2018-03-04T03:30:02.715Z,79.65
2018-03-04T03:30:51.779Z,81.05
2018-03-04T03:31:40.839Z,83.32
2018-03-04T03:32:29.887Z,78.10
2018-03-04T03:33:19.041Z,77.18
2018-03-04T03:34:08.154Z,83.50
2018-03-04T03:34:57.196Z,82.30
2018-03-04T03:35:46.250Z,77.15
2018-03-04T03:36:35.291Z,81.07
2018-03-04T03:37:24.320Z,99.95
2018-03-04T03:38:13.357Z,93.62
2018-03-04T03:39:02.453Z,137.15
2018-03-04T03:39:51.522Z,204.38
2018-03-04T03:40:40.569Z,313.80
2018-03-04T03:41:29.626Z,391.40
2018-03-04T03:42:18.777Z,309.67
2018-03-04T03:43:07.822Z,404.30
2018-03-04T03:43:56.867Z,285.75
2018-03-04T03:44:45.915Z,171.68
2018-03-04T03:45:34.961Z,218.75
2018-03-04T03:46:24.009Z,237.85
2018-03-04T03:47:13.059Z,183.77
2018-03-04T03:48:02.158Z,165.68
2018-03-04T03:48:51.205Z,138.27
2018-03-04T03:49:40.249Z,127.25
2018-03-04T03:50:29.316Z,144.37
2018-03-04T03:51:18.362Z,131.15
2018-03-04T03:52:07.725Z,134.63
2018-03-04T03:52:56.761Z,131.52
2018-03-04T03:53:45.841Z,123.95
2018-03-04T03:54:34.882Z,127.75
2018-03-04T03:55:23.917Z,122.75
2018-03-04T03:56:13.482Z,119.43
2018-03-04T03:57:02.537Z,126.82
2018-03-04T03:57:51.577Z,112.72
2018-03-04T03:58:40.618Z,113.43
2018-03-04T03:59:29.780Z,113.15
2018-03-04T04:00:18.822Z,136.00
2018-03-04T04:01:07.856Z,134.20
2018-03-04T04:01:56.886Z,128.85
2018-03-04T04:02:45.926Z,138.25
2018-03-04T04:03:34.974Z,134.40
2018-03-04T04:04:24.017Z,130.32
2018-03-04T04:05:13.178Z,133.65
2018-03-04T04:06:02.218Z,136.52
2018-03-04T04:06:51.259Z,160.85
2018-03-04T04:07:40.293Z,124.95
2018-03-04T04:08:29.332Z,111.15
2018-03-04T04:09:18.413Z,121.57
2018-03-04T04:10:07.450Z,136.10
2018-03-04T04:10:56.491Z,129.95
2018-03-04T04:11:45.535Z,126.45
2018-03-04T04:12:34.574Z,116.88
2018-03-04T04:13:23.615Z,149.23
2018-03-04T04:14:12.666Z,195.70
2018-03-04T04:15:01.832Z,184.87
2018-03-04T04:15:50.900Z,211.35
2018-03-04T04:16:39.959Z,185.25
2018-03-04T04:17:28.997Z,173.25
2018-03-04T04:18:18.702Z,162.43
2018-03-04T04:19:07.762Z,158.80
2018-03-04T04:19:56.805Z,153.75
2018-03-04T04:20:45.900Z,160.73
2018-03-04T04:21:34.959Z,156.65
2018-03-04T04:22:24.016Z,153.27
2018-03-04T04:23:13.063Z,147.23
2018-03-04T04:24:02.108Z,138.50
2018-03-04T04:24:51.151Z,133.70
2018-03-04T04:25:40.195Z,135.73
2018-03-04T04:26:29.403Z,133.30
2018-03-04T04:27:18.442Z,131.32
2018-03-04T04:28:07.503Z,130.30
2018-03-04T04:28:56.541Z,133.43
2018-03-04T04:29:45.578Z,132.63
2018-03-04T04:30:34.757Z,131.98
2018-03-04T04:31:23.789Z,138.07
2018-03-04T04:32:12.824Z,124.50
2018-03-04T04:33:01.874Z,126.82
2018-03-04T04:33:50.933Z,119.47
2018-03-04T04:34:39.976Z,125.60
2018-03-04T04:35:29.022Z,120.55
2018-03-04T04:36:18.121Z,123.18
2018-03-04T04:37:07.155Z,125.28
2018-03-04T04:37:56.216Z,123.35
2018-03-04T04:38:45.249Z,139.65
2018-03-04T04:39:34.298Z,119.78
2018-03-04T04:40:23.335Z,129.43
2018-03-04T04:41:12.375Z,125.95
2018-03-04T04:42:01.542Z,129.48
2018-03-04T04:42:50.587Z,120.75
2018-03-04T04:43:39.624Z,130.45
2018-03-04T04:44:30.272Z,115.57
2018-03-04T04:45:19.310Z,121.85
2018-03-04T04:46:08.359Z,123.38
2018-03-04T04:46:57.499Z,117.20
2018-03-04T04:47:46.561Z,108.18
2018-03-04T04:48:35.607Z,105.60
2018-03-04T04:49:24.653Z,114.95
2018-03-04T04:50:13.745Z,106.53
2018-03-04T04:51:02.818Z,100.97
2018-03-04T04:51:51.878Z,99.57
2018-03-04T04:52:40.942Z,96.45
2018-03-04T04:53:30.004Z,94.28
2018-03-04T04:54:19.035Z,94.55
2018-03-04T04:55:08.141Z,98.18
2018-03-04T04:55:57.200Z,104.63
2018-03-04T04:56:46.249Z,117.68
2018-03-04T04:57:35.294Z,128.95
2018-03-04T04:58:24.338Z,125.62
2018-03-04T04:59:13.374Z,117.28
2018-03-04T05:00:02.530Z,112.25
2018-03-04T05:00:51.582Z,100.32
2018-03-04T05:01:40.979Z,103.28
2018-03-04T05:02:30.018Z,97.70
2018-03-04T05:03:19.063Z,91.85
2018-03-04T05:04:08.098Z,90.68
2018-03-04T05:04:57.148Z,92.40
2018-03-04T05:05:46.221Z,90.22
2018-03-04T05:06:35.248Z,97.47
2018-03-04T05:07:24.287Z,89.80
2018-03-04T05:08:13.332Z,97.85
2018-03-04T05:09:02.370Z,90.30
2018-03-04T05:09:51.417Z,89.75
2018-03-04T05:10:40.461Z,81.87
2018-03-04T05:11:29.626Z,86.70
2018-03-04T05:12:18.670Z,96.60
2018-03-04T05:13:07.715Z,82.80
2018-03-04T05:13:56.766Z,96.60
2018-03-04T05:14:45.808Z,81.03
2018-03-04T05:15:34.849Z,80.97
2018-03-04T05:16:23.880Z,87.37
2018-03-04T05:17:12.965Z,89.47
2018-03-04T05:18:01.995Z,85.93
2018-03-04T05:18:51.027Z,84.03
2018-03-04T05:19:40.052Z,93.72
2018-03-04T05:20:29.093Z,105.60
2018-03-04T05:21:18.174Z,111.32
2018-03-04T05:22:07.360Z,101.15
2018-03-04T05:22:56.394Z,98.10
2018-03-04T05:23:45.441Z,102.75
2018-03-04T05:24:34.498Z,99.57
2018-03-04T05:25:23.521Z,93.93
2018-03-04T05:26:12.554Z,85.10
2018-03-04T05:27:01.590Z,91.75
2018-03-04T05:27:50.672Z,80.65
2018-03-04T05:28:39.717Z,85.20
2018-03-04T05:29:28.760Z,75.20
2018-03-04T05:30:17.798Z,71.10
2018-03-04T05:31:06.886Z,73.25
2018-03-04T05:31:55.930Z,75.80
2018-03-04T05:32:44.994Z,81.22
2018-03-04T05:33:34.095Z,68.20
2018-03-04T05:34:23.159Z,64.07
2018-03-04T05:35:12.209Z,63.22
2018-03-04T05:36:01.251Z,65.32
2018-03-04T05:36:50.277Z,63.15
2018-03-04T05:37:39.332Z,69.32
2018-03-04T05:38:28.402Z,89.70
2018-03-04T05:39:17.624Z,106.40
2018-03-04T05:40:06.679Z,108.80
2018-03-04T05:40:55.721Z,88.22
2018-03-04T05:41:44.756Z,98.37
2018-03-04T05:42:33.809Z,89.87
2018-03-04T05:43:22.934Z,80.22
2018-03-04T05:44:11.981Z,82.65
2018-03-04T05:45:01.013Z,98.57
2018-03-04T05:45:50.114Z,125.62
2018-03-04T05:46:39.147Z,97.30
2018-03-04T05:47:28.190Z,93.95
2018-03-04T05:48:17.228Z,89.97
2018-03-04T05:49:06.301Z,101.05
2018-03-04T05:49:55.360Z,105.37
2018-03-04T05:50:44.406Z,116.00
2018-03-04T05:51:33.456Z,160.35
2018-03-04T05:52:22.522Z,202.13
2018-03-04T05:53:11.611Z,190.38
2018-03-04T05:54:00.657Z,195.62
2018-03-04T05:54:49.754Z,211.93
2018-03-04T05:55:38.823Z,253.10
2018-03-04T05:56:27.898Z,260.25
2018-03-04T05:57:16.964Z,218.00
2018-03-04T05:58:06.022Z,210.70
2018-03-04T05:58:55.076Z,202.98
2018-03-04T05:59:44.172Z,263.37
2018-03-04T06:00:33.385Z,252.50
2018-03-04T06:01:22.481Z,265.58
2018-03-04T06:02:11.527Z,258.27
2018-03-04T06:03:00.588Z,324.00
2018-03-04T06:03:49.636Z,293.95
2018-03-04T06:04:38.690Z,280.62
2018-03-04T06:05:27.818Z,277.55
2018-03-04T06:06:17.086Z,276.40
2018-03-04T06:07:06.130Z,277.10
2018-03-04T06:07:55.280Z,267.45
2018-03-04T06:08:44.373Z,261.35
2018-03-04T06:09:33.416Z,257.50
2018-03-04T06:10:22.462Z,261.98
2018-03-04T06:11:11.519Z,247.40
2018-03-04T06:12:00.631Z,235.80
2018-03-04T06:12:49.680Z,238.30
2018-03-04T06:13:38.727Z,259.48
2018-03-04T06:14:27.911Z,299.50
2018-03-04T06:15:16.997Z,382.52
2018-03-04T06:16:06.054Z,439.83
2018-03-04T06:16:55.125Z,385.50
2018-03-04T06:17:44.220Z,322.23
2018-03-04T06:18:33.303Z,312.98
2018-03-04T06:19:22.382Z,283.10
2018-03-04T06:20:11.436Z,258.02
2018-03-04T06:21:00.517Z,247.80
2018-03-04T06:21:49.564Z,230.32
2018-03-04T06:22:38.624Z,236.98
2018-03-04T06:23:27.798Z,236.57
2018-03-04T06:24:16.853Z,219.52
2018-03-04T06:25:05.915Z,205.05
2018-03-04T06:25:55.113Z,211.00
2018-03-04T06:26:44.155Z,193.87
2018-03-04T06:27:33.218Z,198.62
2018-03-04T06:28:22.260Z,241.12
2018-03-04T06:29:11.324Z,206.15
2018-03-04T06:30:00.383Z,198.32
2018-03-04T06:30:49.432Z,212.70
2018-03-04T06:31:38.546Z,400.40
2018-03-04T06:32:27.626Z,193.87
2018-03-04T06:33:16.676Z,201.27
2018-03-04T06:34:05.737Z,258.83
2018-03-04T06:34:54.801Z,234.85
2018-03-04T06:35:43.865Z,184.25
2018-03-04T06:36:32.925Z,175.95
2018-03-04T06:37:22.013Z,174.23
2018-03-04T06:38:11.122Z,185.05
2018-03-04T06:39:00.157Z,209.20
2018-03-04T06:39:49.203Z,257.95
2018-03-04T06:40:38.245Z,254.98
2018-03-04T06:41:27.312Z,241.60
2018-03-04T06:42:16.431Z,268.67
2018-03-04T06:43:05.622Z,259.65
2018-03-04T06:43:54.660Z,207.73
2018-03-04T06:44:43.718Z,177.55
2018-03-04T06:45:32.774Z,176.90
2018-03-04T06:46:21.833Z,198.45
2018-03-04T06:47:10.878Z,185.30
2018-03-04T06:47:59.943Z,170.93
2018-03-04T06:48:49.046Z,161.45
2018-03-04T06:49:38.109Z,175.43
2018-03-04T06:50:27.207Z,168.85
2018-03-04T06:51:16.350Z,152.18
2018-03-04T06:52:05.452Z,141.00
2018-03-04T06:52:54.533Z,147.48
2018-03-04T06:53:43.603Z,130.85
2018-03-04T06:54:32.804Z,111.12
2018-03-04T06:55:21.926Z,116.62
2018-03-04T06:56:10.986Z,116.43
2018-03-04T06:57:00.021Z,103.40
2018-03-04T06:57:49.221Z,115.75
2018-03-04T06:58:38.263Z,113.45
2018-03-04T06:59:27.341Z,100.40
2018-03-04T07:00:17.330Z,93.30
2018-03-04T07:01:06.383Z,78.20
2018-03-04T07:01:55.429Z,83.50
2018-03-04T07:02:44.469Z,130.70
2018-03-04T07:03:33.550Z,205.10
2018-03-04T07:04:22.622Z,175.15
2018-03-04T07:05:11.956Z,99.53
2018-03-04T07:06:01.102Z,73.85
2018-03-04T07:06:50.196Z,70.80
2018-03-04T07:07:39.236Z,55.35
2018-03-04T07:08:28.287Z,47.22
2018-03-04T07:09:17.331Z,42.88
2018-03-04T07:10:06.380Z,56.78
2018-03-04T07:10:55.415Z,157.00
2018-03-04T07:11:44.523Z,239.98
2018-03-04T07:12:34.077Z,209.98
2018-03-04T07:13:23.193Z,177.75
2018-03-04T07:14:12.588Z,162.32
2018-03-04T07:15:01.649Z,122.10
2018-03-04T07:15:50.702Z,106.03
2018-03-04T07:16:39.977Z,55.40
2018-03-04T07:17:29.168Z,234.05
2018-03-04T07:18:18.235Z,294.35
2018-03-04T07:19:07.303Z,232.25
2018-03-04T07:19:56.359Z,128.85
2018-03-04T07:20:45.411Z,49.13
2018-03-04T07:21:34.470Z,52.53
2018-03-04T07:22:23.504Z,68.75
2018-03-04T07:23:12.597Z,51.70
2018-03-04T07:24:01.697Z,47.80
2018-03-04T07:24:50.769Z,70.20
2018-03-04T07:25:39.794Z,52.10
2018-03-04T07:26:28.859Z,56.60
2018-03-04T07:27:18.015Z,49.97
2018-03-04T07:28:07.054Z,48.80
2018-03-04T07:28:56.146Z,42.35
2018-03-04T07:29:45.224Z,37.55
2018-03-04T07:30:34.264Z,50.20
2018-03-04T07:31:23.305Z,49.47
2018-03-04T07:32:12.365Z,45.00
2018-03-04T07:33:01.723Z,53.17
2018-03-04T07:33:50.771Z,62.35
2018-03-04T07:34:39.906Z,67.57
2018-03-04T07:35:28.950Z,49.83
2018-03-04T07:36:17.978Z,46.03
2018-03-04T07:37:07.018Z,37.50
2018-03-04T07:37:56.066Z,31.70
2018-03-04T07:38:45.091Z,37.72
2018-03-04T07:39:34.194Z,43.90
2018-03-04T07:40:23.306Z,58.08
2018-03-04T07:41:12.460Z,68.90
2018-03-04T07:42:01.507Z,53.75
2018-03-04T07:42:50.560Z,49.40
2018-03-04T07:43:39.607Z,43.40
2018-03-04T07:44:28.779Z,40.83
2018-03-04T07:45:17.890Z,42.30
2018-03-04T07:46:06.952Z,38.67
2018-03-04T07:46:55.991Z,40.38
2018-03-04T07:47:45.040Z,41.65
2018-03-04T07:48:34.106Z,42.92
2018-03-04T07:49:23.144Z,46.22
2018-03-04T07:50:12.185Z,39.28
2018-03-04T07:51:01.388Z,39.55
2018-03-04T07:51:50.439Z,37.65
2018-03-04T07:52:39.513Z,39.20
2018-03-04T07:53:29.295Z,44.28
2018-03-04T07:54:18.354Z,40.83
2018-03-04T07:55:07.376Z,41.28
2018-03-04T07:55:56.454Z,35.47
2018-03-04T07:56:45.562Z,36.65
2018-03-04T07:57:34.609Z,33.95
2018-03-04T07:58:23.670Z,39.05
2018-03-04T07:59:12.709Z,34.17
2018-03-04T08:00:05.133Z,39.38
2018-03-04T08:00:54.171Z,52.33
2018-03-04T08:01:43.359Z,43.15
2018-03-04T08:02:32.401Z,44.75
2018-03-04T08:03:21.447Z,52.47
2018-03-04T08:04:10.483Z,48.53
2018-03-04T08:04:59.533Z,40.33
2018-03-04T08:05:48.576Z,38.97
2018-03-04T08:06:37.617Z,37.95
2018-03-04T08:07:26.697Z,36.55
2018-03-04T08:08:15.733Z,35.20
2018-03-04T08:09:04.823Z,31.95
2018-03-04T08:09:53.866Z,32.08
2018-03-04T08:10:42.919Z,53.70
2018-03-04T08:11:31.982Z,42.53
2018-03-04T08:12:21.027Z,36.95
2018-03-04T08:13:10.211Z,35.25
2018-03-04T08:13:59.252Z,33.90
2018-03-04T08:14:48.318Z,27.50
2018-03-04T08:15:37.363Z,33.00
2018-03-04T08:16:26.432Z,41.47
2018-03-04T08:17:15.463Z,49.88
2018-03-04T08:18:04.497Z,63.03
2018-03-04T08:18:54.513Z,63.28
2018-03-04T08:19:43.579Z,47.90
2018-03-04T08:20:32.618Z,24.37
2018-03-04T08:21:21.682Z,25.45
2018-03-04T08:22:10.711Z,19.37
2018-03-04T08:22:59.764Z,13.90
2018-03-04T08:23:48.822Z,15.38
2018-03-04T08:24:38.000Z,13.20
2018-03-04T08:25:36.224Z,14.43
2018-03-04T08:26:37.023Z,14.68
2018-03-04T08:27:37.630Z,19.48
2018-03-04T08:28:33.547Z,23.00
2018-03-04T08:29:22.585Z,21.42
2018-03-04T08:30:11.628Z,33.13
2018-03-04T08:31:01.896Z,55.78
2018-03-04T08:31:50.995Z,64.95
2018-03-04T08:32:40.031Z,101.20
2018-03-04T08:33:29.083Z,97.35
2018-03-04T08:34:18.226Z,109.65
2018-03-04T08:35:07.298Z,101.78
2018-03-04T08:35:56.343Z,83.15
2018-03-04T08:36:45.388Z,127.80
2018-03-04T08:37:34.473Z,127.87
2018-03-04T08:38:23.528Z,62.62
2018-03-04T08:39:12.674Z,79.07
2018-03-04T08:40:01.702Z,58.65
2018-03-04T08:40:50.760Z,34.85
2018-03-04T08:41:39.787Z,29.58
2018-03-04T08:42:28.819Z,68.12
2018-03-04T08:43:17.875Z,41.67
2018-03-04T08:44:06.973Z,42.28
2018-03-04T08:44:56.060Z,46.42
2018-03-04T08:45:45.107Z,38.47
2018-03-04T08:46:34.147Z,36.95
2018-03-04T08:47:23.184Z,42.28
2018-03-04T08:48:12.265Z,51.47
2018-03-04T08:49:01.387Z,53.67
2018-03-04T08:49:50.448Z,49.13
2018-03-04T08:50:39.528Z,46.40
2018-03-04T08:51:28.709Z,110.35
2018-03-04T08:52:17.752Z,98.80
2018-03-04T08:53:06.794Z,116.80
2018-03-04T08:53:55.855Z,186.05
2018-03-04T08:54:45.018Z,194.45
2018-03-04T08:55:34.176Z,269.73
2018-03-04T08:56:23.384Z,231.50
2018-03-04T08:57:12.569Z,243.93
2018-03-04T08:58:01.671Z,213.25
2018-03-04T08:58:50.841Z,198.52
2018-03-04T08:59:39.881Z,213.68
2018-03-04T09:00:28.954Z,397.10
2018-03-04T09:01:18.023Z,293.85
2018-03-04T09:02:07.670Z,211.45
2018-03-04T09:02:56.847Z,169.05
2018-03-04T09:03:45.925Z,193.15
2018-03-04T09:04:34.982Z,245.30
2018-03-04T09:05:24.086Z,260.45
2018-03-04T09:06:13.160Z,268.02
2018-03-04T09:07:02.209Z,178.62
2018-03-04T09:07:51.300Z,196.98
2018-03-04T09:08:40.389Z,171.90
2018-03-04T09:09:29.450Z,172.18
2018-03-04T09:10:18.523Z,167.45
2018-03-04T09:11:07.646Z,173.60
2018-03-04T09:11:56.692Z,162.80
2018-03-04T09:12:45.754Z,157.98
2018-03-04T09:13:34.807Z,153.45
2018-03-04T09:14:23.894Z,165.18
2018-03-04T09:15:12.945Z,162.62
2018-03-04T09:16:02.046Z,154.10
2018-03-04T09:16:51.247Z,164.00
2018-03-04T09:17:40.346Z,149.30
2018-03-04T09:18:29.401Z,146.65
2018-03-04T09:19:18.460Z,157.37
2018-03-04T09:20:07.522Z,120.53
2018-03-04T09:20:56.746Z,113.22
2018-03-04T09:21:45.845Z,166.88
2018-03-04T09:22:34.899Z,200.80
2018-03-04T09:23:23.968Z,198.05
2018-03-04T09:24:13.019Z,207.20
2018-03-04T09:25:02.087Z,198.85
2018-03-04T09:25:51.191Z,193.00
2018-03-04T09:26:40.396Z,111.37
2018-03-04T09:27:29.430Z,85.57
2018-03-04T09:28:18.461Z,39.70
2018-03-04T09:29:07.499Z,36.50
2018-03-04T09:29:56.538Z,29.30
2018-03-04T09:30:45.597Z,27.77
2018-03-04T09:31:34.630Z,15.02
2018-03-04T09:32:23.778Z,19.85
2018-03-04T09:33:12.901Z,30.70
2018-03-04T09:34:01.950Z,34.10
2018-03-04T09:34:51.156Z,28.27
2018-03-04T09:35:40.191Z,30.55
2018-03-04T09:36:29.242Z,25.02
2018-03-04T09:37:18.278Z,27.67
2018-03-04T09:38:07.358Z,24.33
2018-03-04T09:38:56.394Z,17.15
2018-03-04T09:39:45.536Z,16.55
2018-03-04T09:40:34.658Z,17.55
2018-03-04T09:41:23.710Z,22.23
2018-03-04T09:42:12.748Z,27.75
2018-03-04T09:43:01.795Z,24.50
2018-03-04T09:43:50.829Z,21.30
2018-03-04T09:44:39.873Z,21.42
2018-03-04T09:45:28.921Z,49.05
2018-03-04T09:46:21.068Z,30.85
2018-03-04T09:47:10.102Z,69.53
2018-03-04T09:47:59.140Z,55.75
2018-03-04T09:48:48.180Z,105.35
2018-03-04T09:49:37.293Z,75.55
2018-03-04T09:50:26.327Z,76.68
2018-03-04T09:51:15.392Z,46.97
2018-03-04T09:52:04.486Z,53.10
2018-03-04T09:52:53.529Z,25.45
2018-03-04T09:53:42.620Z,20.27
2018-03-04T09:54:31.664Z,24.05
2018-03-04T09:55:20.712Z,24.02
2018-03-04T09:56:09.750Z,17.48
2018-03-04T09:56:58.964Z,26.67
2018-03-04T09:57:48.122Z,30.77
2018-03-04T09:58:37.145Z,26.80
2018-03-04T09:59:26.225Z,37.90
2018-03-04T10:00:15.255Z,28.08
2018-03-04T10:01:04.344Z,12.57
2018-03-04T10:01:53.384Z,21.08
2018-03-04T10:02:42.424Z,26.45
2018-03-04T10:03:31.493Z,21.90
2018-03-04T10:04:20.538Z,28.12
2018-03-04T10:05:09.589Z,34.88
2018-03-04T10:05:58.682Z,39.25
2018-03-04T10:06:47.726Z,37.75
2018-03-04T10:07:36.762Z,24.60
2018-03-04T10:08:25.810Z,29.98
2018-03-04T10:09:14.892Z,49.60
2018-03-04T10:10:03.947Z,21.33
2018-03-04T10:10:53.003Z,23.58
2018-03-04T10:11:42.076Z,18.83
2018-03-04T10:12:31.111Z,63.08
2018-03-04T10:13:20.161Z,31.92
2018-03-04T10:14:09.239Z,22.25
2018-03-04T10:14:58.384Z,28.50
2018-03-04T10:15:47.419Z,33.60
2018-03-04T10:16:36.459Z,143.02
2018-03-04T10:17:26.542Z,39.28
2018-03-04T10:18:15.603Z,76.45
2018-03-04T10:19:04.646Z,46.22
2018-03-04T10:19:53.706Z,210.07
2018-03-04T10:20:42.912Z,30.73
2018-03-04T10:21:31.964Z,32.67
2018-03-04T10:22:21.005Z,42.47